Airfield :
LOGIN :

Register | Disclaimer

   EN    FR    IT 

 










Legend :    VFR   Marginal VFR   IFR   Intensive IFR   Very Intensive IFR
Visi :
Ceiling :
>= 8 km
>= 3000ft
5 to 8 km
1000 to 3000 ft
1500m to 5 km
500 to 1000 ft
800 to 1500m
200 to 500 ft
< 800m
< 200 ft
Symbols :   Thunderstorms  Fog  Heavy snow  Heavy precipitations  Wind > 20 kt
SIGMETs :     Misc.  Thunderstorms  Icing  Turbulence  Mountain Waves  Volcanic Ashes






- Airport Elevation : 82 ft
- IATA code : ALG


DAAG - Alger Houari Boumedienne

CURRENT METAR :
  • 042000Z 28011KT 230V310 9999 FEW030 SCT090 22/17 Q1010

EXPIRED METARs :
  • 041930Z 30015KT 9999 FEW030 22/16 Q1009
  • 041900Z 32021G36KT 9999 FEW030 23/15 Q1008
  • 041830Z 32023KT 9999 FEW030 25/14 Q1008
  • 041800Z 31022KT 9999 FEW030 26/13 Q1007
  • 041730Z 30022KT 9999 FEW030TCU 27/13 Q1006

TAF TAF DAAG
Valid from the 04 at 18:00 until the 05 at 18:00 UTC


041700Z 0418/0518 32014KT 9999 FEW030
TEMPO 0418/0422 32020G35KT
PROB40
TEMPO 0422/0504 30020G35KT 4000 -TSRA FEW030CB
BECMG 0423/0502 27012KT
BECMG 0507/0511 33014KT



MET'MAP, your aeronautical weather chart ! - Copyright ORBIFLY December 2007 - Disclaimer

ORBIFLY MET'MAP TEAM :

Programming & Development : Alexandra Zaïnal
Concept & original design : Baudouin d'Aumeries
Assistance for programming : Marc-Olivier Méhu
Technical & hardware support : Manuel Goepfert

Contact : metmap@orbifly.com




SOURCES & CREDITS :

   NOAA